Time;durP1;ratioP1;P1;durP2;ratioP2;P2;SDS_P1;SDS_P2;PMS_P1;PMS_P2;Temp;Humidity;BMP_temperature;BMP_pressure;BME280_temperature;BME280_humidity;BME280_pressure;Samples;Min_cycle;Max_cycle;Signal;HPM_P1;HPM_P2
2021/03/01 00:00:14;;;;;;;26.42;15.40;;;;;;;3.03;84.93;102298.33;1710377;82;25710;-79
2021/03/01 00:02:44;;;;;;;20.05;12.65;;;;;;;3.00;84.84;102298.51;1690289;82;26151;-79
2021/03/01 00:05:13;;;;;;;21.20;13.48;;;;;;;3.03;84.96;102302.77;1648995;82;25805;-79
2021/03/01 00:07:42;;;;;;;21.52;12.53;;;;;;;3.03;84.80;102310.23;1689393;82;28079;-80
2021/03/01 00:10:11;;;;;;;23.52;13.85;;;;;;;3.04;84.82;102311.06;1720281;82;26181;-81
2021/03/01 00:12:40;;;;;;;22.20;13.55;;;;;;;3.03;84.82;102315.53;1647616;83;26555;-81
2021/03/01 00:15:12;;;;;;;19.52;11.33;;;;;;;3.04;84.75;102320.33;1665155;82;26567;-78
2021/03/01 00:17:40;;;;;;;25.60;13.45;;;;;;;3.05;84.81;102317.61;1672059;82;25913;-80
2021/03/01 00:20:11;;;;;;;23.47;14.20;;;;;;;3.04;84.76;102322.52;1686423;84;27550;-79
2021/03/01 00:22:40;;;;;;;22.17;11.93;;;;;;;3.04;84.81;102322.52;1671074;82;26120;-79
2021/03/01 00:25:10;;;;;;;21.93;13.90;;;;;;;3.04;84.80;102325.16;1696152;81;26038;-79
2021/03/01 00:27:38;;;;;;;17.77;10.03;;;;;;;3.01;84.74;102331.98;1665530;83;25898;-78
2021/03/01 00:30:08;;;;;;;23.02;12.88;;;;;;;3.03;84.73;102339.36;1714267;81;25802;-79
2021/03/01 00:32:36;;;;;;;23.07;13.40;;;;;;;3.03;84.72;102343.33;1693836;81;28457;-79
2021/03/01 00:35:06;;;;;;;21.60;11.80;;;;;;;3.05;84.70;102341.90;1685817;83;26500;-80
2021/03/01 00:37:34;;;;;;;30.77;15.13;;;;;;;3.03;84.71;102344.66;1699656;81;25819;-78
2021/03/01 00:40:03;;;;;;;26.70;13.95;;;;;;;3.03;84.74;102342.01;1709366;83;25744;-79
2021/03/01 00:42:31;;;;;;;22.82;15.13;;;;;;;3.07;84.65;102346.16;1628017;84;25407;-79
2021/03/01 00:44:58;;;;;;;19.48;12.50;;;;;;;3.07;84.62;102344.83;1705723;81;27506;-80
2021/03/01 00:47:26;;;;;;;26.90;14.33;;;;;;;3.11;84.62;102350.31;1694472;83;25827;-79
2021/03/01 00:49:53;;;;;;;24.50;13.70;;;;;;;3.11;84.54;102351.63;1675744;82;26167;-79
2021/03/01 00:52:21;;;;;;;24.02;13.72;;;;;;;3.10;84.56;102350.42;1674228;82;25826;-79
2021/03/01 00:54:48;;;;;;;23.77;14.47;;;;;;;3.09;84.47;102353.99;1673806;82;25886;-78
2021/03/01 00:57:15;;;;;;;24.00;14.95;;;;;;;3.11;84.50;102352.95;1686456;83;28571;-78
2021/03/01 00:59:43;;;;;;;20.02;13.20;;;;;;;3.16;84.48;102358.44;1738388;81;25884;-80
2021/03/01 01:02:11;;;;;;;27.22;14.98;;;;;;;3.17;84.50;102352.17;1709645;82;26512;-78
2021/03/01 01:04:40;;;;;;;24.30;14.30;;;;;;;3.17;84.41;102357.47;1647519;81;25782;-78
2021/03/01 01:07:08;;;;;;;23.83;14.10;;;;;;;3.17;84.33;102348.20;1690729;81;26100;-79
2021/03/01 01:09:35;;;;;;;26.77;15.35;;;;;;;3.18;84.29;102351.24;1666184;83;29021;-81
2021/03/01 01:12:03;;;;;;;24.47;15.35;;;;;;;3.20;84.29;102350.67;1673239;83;25775;-78
2021/03/01 01:14:32;;;;;;;24.50;14.90;;;;;;;3.23;84.35;102352.64;1673899;83;26601;-78
2021/03/01 01:16:59;;;;;;;26.10;14.25;;;;;;;3.27;84.25;102354.64;1719523;81;26401;-79
2021/03/01 01:19:26;;;;;;;22.45;14.15;;;;;;;3.27;84.14;102354.64;1665652;82;25949;-79
2021/03/01 01:21:54;;;;;;;25.55;13.78;;;;;;;3.25;84.08;102353.39;1673509;83;27619;-80
2021/03/01 01:24:21;;;;;;;24.90;14.80;;;;;;;3.27;84.04;102357.29;1696505;83;25948;-80
2021/03/01 01:26:49;;;;;;;25.05;15.32;;;;;;;3.28;84.08;102356.33;1715916;83;25849;-80
2021/03/01 01:29:16;;;;;;;22.25;14.47;;;;;;;3.30;84.04;102356.61;1669490;82;26864;-80
2021/03/01 01:31:44;;;;;;;21.77;13.10;;;;;;;3.31;83.97;102356.14;1650199;83;25836;-80
2021/03/01 01:34:11;;;;;;;26.77;15.23;;;;;;;3.31;83.89;102362.30;1696405;83;27093;-80
2021/03/01 01:36:38;;;;;;;23.77;14.83;;;;;;;3.31;83.91;102360.97;1719658;83;26103;-80
2021/03/01 01:39:06;;;;;;;23.20;15.05;;;;;;;3.33;83.90;102359.55;1667792;83;25786;-80
2021/03/01 01:41:33;;;;;;;25.90;14.30;;;;;;;3.31;83.87;102360.12;1670180;83;25878;-79
2021/03/01 01:44:00;;;;;;;23.45;13.50;;;;;;;3.34;83.88;102361.23;1696914;83;25405;-83
2021/03/01 01:46:28;;;;;;;23.70;14.43;;;;;;;3.35;83.74;102364.27;1719579;83;27596;-80
2021/03/01 01:48:56;;;;;;;24.20;14.53;;;;;;;3.32;83.74;102365.30;1626486;83;26023;-79
2021/03/01 01:51:23;;;;;;;22.07;13.32;;;;;;;3.30;83.70;102369.85;1668470;84;25743;-80
2021/03/01 01:53:50;;;;;;;24.30;14.28;;;;;;;3.29;83.72;102366.84;1720786;83;26450;-81
2021/03/01 01:56:18;;;;;;;24.57;15.40;;;;;;;3.27;83.76;102362.59;1719782;83;25706;-79
2021/03/01 01:58:45;;;;;;;31.00;15.18;;;;;;;3.29;83.80;102367.31;1643662;83;27615;-79
2021/03/01 02:01:13;;;;;;;24.25;15.10;;;;;;;3.29;83.81;102364.66;1696628;83;25809;-80
2021/03/01 02:04:28;;;;;;;23.67;14.63;;;;;;;3.30;83.76;102372.50;1696702;83;25833;-80
2021/03/01 02:07:07;;;;;;;28.52;16.25;;;;;;;3.27;83.71;102372.71;1712185;83;25970;-79
2021/03/01 02:09:58;;;;;;;25.70;15.68;;;;;;;3.23;83.82;102380.94;1698924;81;26279;-80
2021/03/01 02:12:31;;;;;;;;;;;;;;;3.26;83.92;102383.38;1700882;83;27665;-80
2021/03/01 02:15:07;;;;;;;27.35;14.35;;;;;;;3.26;83.89;102382.05;1679041;83;25779;-81
2021/03/01 02:17:34;;;;;;;21.52;13.90;;;;;;;3.25;83.92;102376.40;1697610;83;25831;-80
2021/03/01 02:20:06;;;;;;;26.93;15.93;;;;;;;3.25;83.80;102377.72;1668280;84;25741;-81
2021/03/01 02:22:33;;;;;;;28.30;15.88;;;;;;;3.22;83.83;102373.93;1722908;81;26135;-80
2021/03/01 02:25:17;;;;;;;24.72;16.05;;;;;;;3.22;83.78;102369.95;1675843;81;27260;-79
2021/03/01 02:27:59;;;;;;;27.73;16.00;;;;;;;3.20;83.79;102370.53;1702683;83;25839;-80
2021/03/01 02:30:34;;;;;;;27.93;16.73;;;;;;;3.19;83.86;102370.17;1722992;81;26386;-79
2021/03/01 02:33:10;;;;;;;26.12;15.45;;;;;;;3.16;83.87;102368.56;1688205;82;25832;-79
2021/03/01 02:35:42;;;;;;;26.12;15.45;;;;;;;3.12;83.91;102361.76;1719933;82;25896;-79
2021/03/01 02:38:11;;;;;;;24.37;15.80;;;;;;;3.11;84.01;102371.95;1695599;82;27606;-80
2021/03/01 02:40:41;;;;;;;27.85;15.63;;;;;;;3.10;84.00;102371.09;1713803;82;25899;-79
2021/03/01 02:43:11;;;;;;;25.45;14.78;;;;;;;3.09;84.06;102361.94;1687691;82;26418;-80
2021/03/01 02:45:42;;;;;;;28.57;17.45;;;;;;;3.10;84.09;102371.59;1727920;82;25850;-81
2021/03/01 02:48:12;;;;;;;27.87;16.05;;;;;;;3.09;84.09;102375.17;1672797;82;25950;-79
2021/03/01 02:50:42;;;;;;;26.93;14.68;;;;;;;3.13;84.16;102379.33;1684769;83;27554;-80
2021/03/01 02:53:14;;;;;;;31.40;16.00;;;;;;;3.10;84.13;102372.42;1697164;82;26378;-80
2021/03/01 02:55:47;;;;;;;26.87;16.15;;;;;;;3.07;84.11;102373.09;1689026;82;26092;-80
2021/03/01 02:58:18;;;;;;;28.23;17.35;;;;;;;3.09;84.18;102376.50;1679033;82;25888;-80
2021/03/01 03:00:46;;;;;;;;;;;;;;;3.11;84.20;102371.48;1723787;82;25883;-79
2021/03/01 03:03:13;;;;;;;28.27;16.55;;;;;;;3.10;84.14;102372.42;1692688;82;27364;-79
2021/03/01 03:05:44;;;;;;;27.85;17.62;;;;;;;3.11;84.25;102381.22;1718596;82;26384;-79
2021/03/01 03:08:13;;;;;;;29.80;17.50;;;;;;;3.14;84.23;102374.42;1671348;83;25784;-80
2021/03/01 03:10:41;;;;;;;30.17;16.95;;;;;;;3.21;84.29;102376.22;1704078;81;25904;-80
2021/03/01 03:13:10;;;;;;;33.63;19.12;;;;;;;3.24;84.12;102379.98;1706733;81;25862;-80
2021/03/01 03:15:40;;;;;;;32.05;18.48;;;;;;;3.29;84.12;102383.20;1707151;83;27544;-79
2021/03/01 03:18:13;;;;;;;29.92;18.42;;;;;;;3.30;83.95;102376.94;1663529;83;25839;-79
2021/03/01 03:20:40;;;;;;;28.35;17.57;;;;;;;3.31;83.96;102383.48;1693516;83;25824;-80
2021/03/01 03:23:09;;;;;;;28.87;18.27;;;;;;;3.34;83.93;102385.06;1714994;82;25884;-78
2021/03/01 03:25:36;;;;;;;26.17;16.87;;;;;;;3.33;83.85;102387.35;1712820;82;25785;-80
2021/03/01 03:28:05;;;;;;;29.77;17.95;;;;;;;3.32;83.75;102385.64;1650440;84;28492;-79
2021/03/01 03:30:33;;;;;;;31.77;19.07;;;;;;;3.33;83.87;102385.56;1682371;83;25873;-80
2021/03/01 03:33:01;;;;;;;28.80;18.07;;;;;;;3.37;83.86;102389.71;1725326;82;25805;-80
2021/03/01 03:35:30;;;;;;;29.92;16.40;;;;;;;3.40;83.84;102388.17;1724982;82;26392;-80
2021/03/01 03:38:04;;;;;;;30.92;18.45;;;;;;;3.39;83.64;102382.52;1655212;82;25848;-80
2021/03/01 03:40:33;;;;;;;29.15;17.48;;;;;;;3.38;83.59;102389.25;1669138;82;27561;-79
2021/03/01 03:43:02;;;;;;;29.63;16.85;;;;;;;3.30;83.52;102392.36;1700882;82;25829;-79
2021/03/01 03:45:31;;;;;;;27.48;17.82;;;;;;;3.27;83.59;102395.22;1713512;82;25775;-79
2021/03/01 03:48:03;;;;;;;32.73;17.40;;;;;;;3.28;83.64;102393.41;1652966;83;25646;-79
2021/03/01 03:50:32;;;;;;;31.52;17.65;;;;;;;3.28;83.76;102399.55;1694405;82;26433;-79
2021/03/01 03:53:10;;;;;;;29.67;16.52;;;;;;;3.29;83.67;102405.70;1689263;82;27335;-79
2021/03/01 03:55:41;;;;;;;28.27;16.67;;;;;;;3.25;83.63;102401.05;1733558;81;26109;-80
2021/03/01 03:58:13;;;;;;;29.87;15.95;;;;;;;3.22;83.67;102402.59;1663298;83;25789;-79
2021/03/01 04:00:40;;;;;;;29.90;17.27;;;;;;;3.20;83.68;102407.14;1704153;82;26339;-79
2021/03/01 04:03:12;;;;;;;32.23;17.05;;;;;;;3.18;83.69;102410.81;1695078;81;25886;-80
2021/03/01 04:05:42;;;;;;;37.03;17.75;;;;;;;3.14;83.76;102416.30;1709223;83;27522;-80
2021/03/01 04:08:13;;;;;;;31.07;17.07;;;;;;;3.14;83.83;102408.84;1704965;82;25897;-82
2021/03/01 04:10:50;;;;;;;31.10;17.62;;;;;;;3.16;83.87;102418.87;1717749;82;25792;-80
2021/03/01 04:13:20;;;;;;;29.82;16.77;;;;;;;3.11;83.82;102415.17;1714289;82;25749;-80
2021/03/01 04:15:49;;;;;;;30.85;17.15;;;;;;;3.08;83.92;102417.14;1712540;82;25400;-78
2021/03/01 04:18:27;;;;;;;32.63;18.15;;;;;;;3.03;83.96;102410.83;1663996;82;27548;-80
2021/03/01 04:20:56;;;;;;;29.23;15.48;;;;;;;3.07;84.02;102411.48;1693524;83;26109;-79
2021/03/01 04:23:25;;;;;;;34.25;17.65;;;;;;;3.06;84.00;102414.59;1691656;83;25849;-80
2021/03/01 04:25:53;;;;;;;29.90;17.12;;;;;;;3.04;83.99;102411.20;1710594;82;26416;-80
2021/03/01 04:28:21;;;;;;;31.55;17.32;;;;;;;3.04;84.06;102411.66;1654113;82;25951;-80
2021/03/01 04:30:51;;;;;;;33.02;17.90;;;;;;;3.08;84.08;102411.38;1723497;82;28562;-80
2021/03/01 04:33:20;;;;;;;33.78;17.70;;;;;;;3.10;84.05;102403.37;1693047;82;26434;-80
2021/03/01 04:35:51;;;;;;;29.40;16.32;;;;;;;3.12;84.07;102410.23;1718541;82;25901;-80
2021/03/01 04:38:18;;;;;;;31.37;17.02;;;;;;;3.15;84.07;102411.85;1669751;83;26702;-79
2021/03/01 04:40:45;;;;;;;26.55;15.45;;;;;;;3.17;84.03;102413.94;1715286;81;25786;-79
2021/03/01 04:43:15;;;;;;;29.23;14.98;;;;;;;3.18;83.96;102406.84;1707675;83;27544;-79
2021/03/01 04:45:45;;;;;;;27.75;15.40;;;;;;;3.18;83.88;102410.81;1679820;83;25771;-78
2021/03/01 04:48:14;;;;;;;25.65;14.98;;;;;;;3.16;83.91;102412.71;1688043;83;25800;-80
2021/03/01 04:50:46;;;;;;;29.93;16.70;;;;;;;3.17;83.91;102412.61;1702663;83;25842;-80
2021/03/01 04:53:15;;;;;;;31.40;17.50;;;;;;;3.16;83.94;102411.39;1702536;83;25770;-80
2021/03/01 04:55:44;;;;;;;27.27;15.13;;;;;;;3.21;84.03;102416.77;1646729;83;28470;-80
2021/03/01 04:58:14;;;;;;;27.10;13.90;;;;;;;3.20;83.87;102415.08;1655008;83;26110;-81
2021/03/01 05:00:44;;;;;;;33.65;17.20;;;;;;;3.19;83.79;102423.13;1677252;83;25880;-81
2021/03/01 05:03:11;;;;;;;30.80;16.15;;;;;;;3.17;83.83;102426.31;1715135;83;26429;-79
2021/03/01 05:05:41;;;;;;;29.80;16.57;;;;;;;3.13;83.82;102422.55;1654745;84;25811;-80
2021/03/01 05:08:15;;;;;;;28.05;15.20;;;;;;;3.10;83.81;102425.88;1714030;83;27545;-79
2021/03/01 05:10:44;;;;;;;33.73;18.07;;;;;;;3.09;83.87;102425.48;1693841;83;26074;-79
2021/03/01 05:13:11;;;;;;;28.57;14.43;;;;;;;3.06;83.88;102433.59;1739197;81;25818;-80
2021/03/01 05:15:39;;;;;;;27.25;15.15;;;;;;;3.05;83.95;102432.77;1678652;83;25796;-79
2021/03/01 05:18:06;;;;;;;26.93;15.68;;;;;;;3.05;83.95;102433.23;1683549;82;26497;-80
2021/03/01 05:20:33;;;;;;;27.27;14.98;;;;;;;3.02;83.95;102428.97;1708251;81;27469;-80
2021/03/01 05:23:01;;;;;;;24.47;14.38;;;;;;;3.01;83.94;102423.31;1730983;81;26441;-80
2021/03/01 05:25:28;;;;;;;26.77;14.03;;;;;;;3.00;83.95;102427.36;1648629;82;25716;-79
2021/03/01 05:27:55;;;;;;;25.85;14.78;;;;;;;2.99;83.96;102438.41;1724356;80;25875;-80
2021/03/01 05:30:23;;;;;;;31.73;15.80;;;;;;;3.00;84.04;102450.72;1741335;80;25935;-80
2021/03/01 05:32:50;;;;;;;26.95;14.60;;;;;;;3.02;84.06;102450.15;1773548;80;27533;-79
2021/03/01 05:35:18;;;;;;;27.20;14.93;;;;;;;3.01;84.06;102454.22;1702016;81;25789;-79
2021/03/01 05:37:45;;;;;;;27.45;13.93;;;;;;;3.01;84.06;102453.76;1713460;80;25912;-80
2021/03/01 05:40:13;;;;;;;27.05;14.00;;;;;;;3.05;84.03;102454.41;1733298;81;26582;-79
2021/03/01 05:42:42;;;;;;;26.73;15.53;;;;;;;3.08;84.08;102461.69;1766023;80;25930;-78
2021/03/01 05:45:11;;;;;;;28.40;14.85;;;;;;;3.11;84.12;102461.97;1730648;80;27721;-80
2021/03/01 05:47:40;;;;;;;29.52;15.93;;;;;;;3.14;84.12;102465.27;1724730;80;25914;-80
2021/03/01 05:50:10;;;;;;;30.68;15.48;;;;;;;3.17;84.11;102473.51;1705433;81;25929;-80
2021/03/01 05:52:42;;;;;;;29.15;16.97;;;;;;;3.23;84.10;102474.95;1772698;80;25759;-81
2021/03/01 05:55:09;;;;;;;27.95;16.00;;;;;;;3.24;84.04;102466.04;1730965;80;26225;-79
2021/03/01 05:57:39;;;;;;;27.82;16.05;;;;;;;3.28;84.01;102483.44;1741203;80;28447;-80
2021/03/01 06:00:08;;;;;;;28.27;16.00;;;;;;;3.30;84.04;102474.93;1733394;81;26133;-81
2021/03/01 06:02:36;;;;;;;29.52;16.07;;;;;;;3.34;83.96;102475.97;1780859;80;25905;-79
2021/03/01 06:05:04;;;;;;;26.10;15.70;;;;;;;3.38;83.94;102481.95;1701539;81;25855;-79
2021/03/01 06:07:31;;;;;;;28.70;14.83;;;;;;;3.40;83.83;102478.73;1716126;80;25886;-80
2021/03/01 06:09:59;;;;;;;27.98;15.23;;;;;;;3.38;83.72;102486.75;1732683;81;28064;-79
2021/03/01 06:12:26;;;;;;;22.80;13.35;;;;;;;3.36;83.73;102483.84;1770838;80;25898;-80
2021/03/01 06:14:55;;;;;;;32.00;15.83;;;;;;;3.33;83.70;102482.70;1689783;81;26495;-80
2021/03/01 06:17:23;;;;;;;31.17;16.35;;;;;;;3.35;83.83;102488.75;1729869;80;25888;-79
2021/03/01 06:19:58;;;;;;;28.85;15.88;;;;;;;3.38;83.86;102493.88;1739604;80;25732;-80
2021/03/01 06:22:34;;;;;;;27.42;16.07;;;;;;;3.39;83.76;102491.58;1768338;80;28399;-80
2021/03/01 06:25:14;;;;;;;29.35;16.30;;;;;;;3.37;83.70;102493.48;1768823;80;26147;-79
2021/03/01 06:27:54;;;;;;;30.20;15.97;;;;;;;3.38;83.82;102492.05;1717590;81;25923;-80
2021/03/01 06:30:29;;;;;;;26.45;15.63;;;;;;;3.38;83.71;102497.84;1719077;80;25433;-79
2021/03/01 06:33:18;;;;;;;28.90;16.60;;;;;;;3.36;83.78;102496.59;1733000;80;26127;-80
2021/03/01 06:35:57;;;;;;;30.97;15.72;;;;;;;3.38;83.80;102497.84;1747190;78;27537;-80
2021/03/01 06:38:32;;;;;;;29.65;15.98;;;;;;;3.37;83.77;102496.98;1751298;80;26097;-81
2021/03/01 06:41:13;;;;;;;31.15;17.23;;;;;;;3.37;83.87;102505.40;1702985;81;25527;-79
2021/03/01 06:43:54;;;;;;;32.38;16.85;;;;;;;3.36;83.83;102509.83;1723985;82;25738;-79
2021/03/01 06:46:33;;;;;;;32.03;15.63;;;;;;;3.33;83.87;102508.72;1669234;84;26410;-80
2021/03/01 06:49:16;;;;;;;26.30;14.45;;;;;;;3.36;83.93;102509.01;1699504;81;27617;-80
2021/03/01 06:51:44;;;;;;;30.37;15.25;;;;;;;3.33;83.95;102506.06;1739818;80;25862;-79
2021/03/01 06:54:12;;;;;;;25.82;15.75;;;;;;;3.36;84.03;102512.98;1759626;80;25848;-80
2021/03/01 06:56:44;;;;;;;29.15;16.25;;;;;;;3.35;83.97;102514.77;1700016;81;25874;-78
2021/03/01 06:59:18;;;;;;;24.75;14.78;;;;;;;3.37;84.06;102512.88;1744909;80;26164;-80
2021/03/01 07:01:58;;;;;;;64.45;29.00;;;;;;;3.37;83.94;102504.93;1735086;80;28156;-79
2021/03/01 07:04:30;;;;;;;51.15;25.55;;;;;;;3.41;83.93;102516.18;1772677;80;25870;-80
2021/03/01 07:07:00;;;;;;;36.83;21.02;;;;;;;3.41;83.92;102520.16;1708418;80;25952;-79
2021/03/01 07:09:37;;;;;;;31.57;19.32;;;;;;;3.43;83.98;102523.56;1716298;81;25562;-78
2021/03/01 07:12:05;;;;;;;26.17;15.78;;;;;;;3.45;83.96;102517.69;1733004;81;25906;-79
2021/03/01 07:14:32;;;;;;;25.15;15.50;;;;;;;3.45;83.86;102511.92;1771257;80;28431;-80
2021/03/01 07:17:00;;;;;;;30.45;16.57;;;;;;;3.47;83.98;102517.13;1694407;80;26034;-78
2021/03/01 07:19:31;;;;;;;28.52;16.25;;;;;;;3.49;83.90;102512.58;1743043;80;25663;-80
2021/03/01 07:22:01;;;;;;;31.57;17.73;;;;;;;3.51;84.01;102507.56;1743831;80;25864;-80
2021/03/01 07:24:30;;;;;;;30.53;17.80;;;;;;;3.56;83.92;102512.59;1752472;80;25830;-79
2021/03/01 07:27:01;;;;;;;34.00;17.50;;;;;;;3.57;83.85;102516.95;1716730;80;27695;-78
2021/03/01 07:29:37;;;;;;;25.32;13.20;;;;;;;3.59;83.95;102521.69;1765676;80;25699;-79
2021/03/01 07:32:13;;;;;;;31.30;18.50;;;;;;;3.57;83.80;102526.23;1749277;80;25584;-78
2021/03/01 07:34:40;;;;;;;46.65;26.77;;;;;;;3.50;83.68;102524.89;1761094;80;26337;-78
2021/03/01 07:37:08;;;;;;;27.65;14.95;;;;;;;3.51;83.71;102525.25;1738138;80;25766;-78
2021/03/01 07:39:36;;;;;;;23.87;12.58;;;;;;;3.49;83.69;102531.13;1736205;80;28456;-79
2021/03/01 07:42:06;;;;;;;28.98;13.68;;;;;;;3.50;83.76;102535.03;1739220;80;25714;-79
2021/03/01 07:44:35;;;;;;;25.82;12.35;;;;;;;3.49;83.74;102531.13;1748449;80;25856;-79
2021/03/01 07:47:05;;;;;;;24.43;13.75;;;;;;;3.49;83.70;102534.63;1710825;81;25789;-79
2021/03/01 07:49:43;;;;;;;28.65;15.18;;;;;;;3.49;83.78;102541.72;1728945;81;25857;-79
2021/03/01 07:52:31;;;;;;;25.88;14.15;;;;;;;3.50;83.86;102543.44;1731844;80;27342;-81
2021/03/01 07:55:11;;;;;;;27.80;13.40;;;;;;;3.50;83.87;102548.27;1766238;80;26245;-78
2021/03/01 07:57:40;;;;;;;27.10;13.30;;;;;;;3.51;83.89;102545.98;1695618;80;25800;-78
2021/03/01 08:00:33;;;;;;;24.40;13.10;;;;;;;3.52;83.97;102544.20;1747677;80;26374;-77
2021/03/01 08:02:59;;;;;;;25.80;13.65;;;;;;;3.54;83.92;102555.08;1733743;81;25893;-79
2021/03/01 08:05:32;;;;;;;24.55;12.37;;;;;;;3.50;83.90;102551.39;1751611;80;27949;-79
2021/03/01 08:08:00;;;;;;;36.95;17.65;;;;;;;3.49;83.98;102550.99;1661218;81;25857;-78
2021/03/01 08:10:39;;;;;;;31.02;16.48;;;;;;;3.51;84.02;102553.07;1709781;80;26283;-80
2021/03/01 08:13:08;;;;;;;27.22;13.78;;;;;;;3.50;83.99;102548.73;1745657;80;26359;-78
2021/03/01 08:15:45;;;;;;;24.10;13.72;;;;;;;3.53;84.13;102549.89;1743527;80;26377;-79
2021/03/01 08:18:13;;;;;;;24.10;13.53;;;;;;;3.51;84.39;102548.63;1753792;80;27538;-79
2021/03/01 08:20:45;;;;;;;30.88;15.03;;;;;;;3.50;84.25;102558.01;1732578;80;25932;-80
2021/03/01 08:23:14;;;;;;;29.02;15.08;;;;;;;3.49;84.20;102563.77;1747602;80;25799;-79
2021/03/01 08:25:52;;;;;;;21.97;12.93;;;;;;;3.51;84.30;102557.91;1684865;81;25833;-80
2021/03/01 08:28:30;;;;;;;20.75;11.83;;;;;;;3.57;84.32;102566.80;1689625;81;26418;-79
2021/03/01 08:31:10;;;;;;;17.23;9.50;;;;;;;3.58;84.22;102563.22;1705845;81;27364;-79
2021/03/01 08:33:37;;;;;;;26.90;14.00;;;;;;;3.54;84.02;102564.82;1722256;82;25716;-79
2021/03/01 08:36:16;;;;;;;26.02;13.43;;;;;;;3.51;84.16;102573.80;1673831;82;25860;-78
2021/03/01 08:38:50;;;;;;;21.52;11.15;;;;;;;3.57;84.25;102572.59;1714087;83;26364;-79
2021/03/01 08:41:20;;;;;;;22.15;11.80;;;;;;;3.61;84.14;102564.84;1707444;81;25880;-79
2021/03/01 08:43:51;;;;;;;20.75;12.07;;;;;;;3.60;83.99;102569.27;1720854;81;28543;-80
2021/03/01 08:46:20;;;;;;;20.13;12.53;;;;;;;3.63;84.11;102571.75;1637092;83;25930;-79
2021/03/01 08:48:51;;;;;;;25.80;14.98;;;;;;;3.69;83.95;102575.34;1703671;83;26356;-80
2021/03/01 08:51:19;;;;;;;;;;;;;;;3.72;83.87;102584.41;1677898;83;25805;-79
2021/03/01 08:53:51;;;;;;;30.52;16.77;;;;;;;3.75;83.85;102586.02;1686735;84;26012;-79
2021/03/01 08:56:27;;;;;;;30.25;16.17;;;;;;;3.72;83.90;102592.86;1684767;82;27539;-80
2021/03/01 08:58:55;;;;;;;33.58;17.02;;;;;;;3.73;83.87;102597.20;1734427;81;25864;-79
2021/03/01 09:01:23;;;;;;;32.90;17.25;;;;;;;3.72;83.83;102596.34;1705970;81;25799;-80
2021/03/01 09:03:50;;;;;;;30.27;16.97;;;;;;;3.72;83.74;102596.83;1700709;81;25559;-79
2021/03/01 09:06:21;;;;;;;36.13;19.17;;;;;;;3.72;83.65;102602.96;1676054;81;26125;-78
2021/03/01 09:08:56;;;;;;;34.25;17.92;;;;;;;3.72;83.74;102605.61;1711867;83;28429;-79
2021/03/01 09:14:07;;;;;;;29.10;16.67;;;;;;;3.77;83.58;102601.36;1820241;77;25827;-79
2021/03/01 09:16:38;;;;;;;34.83;19.40;;;;;;;3.72;83.73;102606.11;1798131;78;25741;-78
2021/03/01 09:19:11;;;;;;;;;;;;;;;3.74;83.73;102598.91;1752160;80;28450;-79
2021/03/01 09:21:43;;;;;;;26.02;15.00;;;;;;;3.74;83.64;102604.22;1767347;78;26197;-80
2021/03/01 09:24:13;;;;;;;29.98;17.42;;;;;;;3.72;83.58;102606.94;1753215;79;25809;-79
2021/03/01 09:26:45;;;;;;;30.90;17.07;;;;;;;3.69;83.60;102604.95;1778894;79;26062;-79
2021/03/01 09:29:18;;;;;;;34.10;17.80;;;;;;;3.71;83.83;102612.34;1756501;78;25710;-78
2021/03/01 09:31:54;;;;;;;30.12;16.20;;;;;;;3.73;83.91;102622.38;1763185;78;27601;-78
2021/03/01 09:34:27;;;;;;;29.45;14.70;;;;;;;3.74;83.64;102616.14;1786518;79;26421;-78
2021/03/01 09:36:54;;;;;;;33.02;18.52;;;;;;;3.71;83.54;102613.20;1733768;78;26144;-78
2021/03/01 09:39:25;;;;;;;23.20;12.35;;;;;;;3.69;83.61;102622.19;1769407;78;26351;-79
2021/03/01 09:41:54;;;;;;;;;;;;;;;3.70;83.51;102622.58;1777211;78;25857;-80
2021/03/01 09:44:36;;;;;;;28.92;14.25;;;;;;;3.67;83.45;102626.73;1798386;78;26883;-80
2021/03/01 09:47:03;;;;;;;29.05;15.68;;;;;;;3.65;83.61;102622.86;1714436;78;25392;-79
2021/03/01 09:49:34;;;;;;;26.15;13.78;;;;;;;3.63;83.41;102624.75;1772149;78;25878;-79
2021/03/01 09:52:02;;;;;;;27.95;15.40;;;;;;;3.59;83.45;102626.34;1760235;79;25963;-79
2021/03/01 09:54:30;;;;;;;30.02;15.28;;;;;;;3.57;83.52;102631.72;1797185;78;26269;-79
2021/03/01 09:57:07;;;;;;;29.05;15.88;;;;;;;3.59;83.86;102624.52;1746641;80;27595;-79
2021/03/01 09:59:41;;;;;;;27.82;15.08;;;;;;;3.65;83.85;102624.18;1764301;78;26680;-79
2021/03/01 10:02:14;;;;;;;23.90;12.53;;;;;;;3.72;84.16;102628.64;1768916;79;25801;-80
2021/03/01 10:04:42;;;;;;;22.98;12.15;;;;;;;3.72;83.62;102628.14;1751930;79;26406;-79
2021/03/01 10:07:28;;;;;;;22.73;13.18;;;;;;;3.71;83.59;102631.75;1739749;78;26416;-81
2021/03/01 10:09:57;;;;;;;23.62;13.08;;;;;;;3.74;83.50;102642.64;1737011;80;27610;-79
2021/03/01 10:12:26;;;;;;;27.20;15.48;;;;;;;3.73;83.48;102636.95;1725191;81;25904;-78
2021/03/01 10:14:59;;;;;;;28.45;15.23;;;;;;;3.73;83.52;102640.92;1767693;80;25429;-78
2021/03/01 10:17:28;;;;;;;28.92;15.72;;;;;;;3.76;83.69;102640.75;1661538;81;25843;-78
2021/03/01 10:20:15;;;;;;;19.20;11.65;;;;;;;3.72;83.30;102641.39;1737392;81;25897;-78
2021/03/01 10:23:02;;;;;;;25.23;14.38;;;;;;;3.71;83.44;102630.89;1751347;81;27103;-77
2021/03/01 10:25:39;;;;;;;25.37;14.50;;;;;;;3.71;83.60;102630.89;1736600;81;26687;-78
2021/03/01 10:28:29;;;;;;;25.30;14.63;;;;;;;3.78;83.79;102633.09;1711897;81;25791;-79
2021/03/01 10:31:17;;;;;;;25.50;13.80;;;;;;;3.83;83.78;102622.18;1722799;81;25927;-78
2021/03/01 10:33:59;;;;;;;25.08;14.10;;;;;;;3.88;83.77;102633.37;1705083;83;25842;-79
2021/03/01 10:36:58;;;;;;;29.27;15.83;;;;;;;3.88;83.51;102640.85;1745042;81;27538;-78
2021/03/01 10:39:39;;;;;;;30.08;16.65;;;;;;;3.89;83.61;102640.39;1709618;81;26152;-78
2021/03/01 10:42:20;;;;;;;33.63;20.25;;;;;;;3.90;83.52;102637.63;1713147;81;26028;-78
2021/03/01 10:45:01;;;;;;;33.92;19.05;;;;;;;3.97;83.49;102634.13;1707386;81;25817;-77
2021/03/01 10:47:31;;;;;;;34.43;18.70;;;;;;;3.99;83.48;102632.23;1736469;81;25866;-78
2021/03/01 10:50:20;;;;;;;30.30;16.82;;;;;;;4.05;83.51;102630.98;1685254;81;27364;-78
2021/03/01 10:52:48;;;;;;;28.80;15.13;;;;;;;4.09;83.39;102633.82;1740585;81;25702;-78
2021/03/01 10:55:16;;;;;;;33.63;16.80;;;;;;;4.09;83.14;102631.17;1708763;81;25781;-80
2021/03/01 10:57:43;;;;;;;31.02;17.50;;;;;;;4.12;83.32;102625.22;1731619;81;26001;-78
2021/03/01 11:00:12;;;;;;;30.95;18.20;;;;;;;4.18;83.25;102629.28;1722768;82;25885;-78
2021/03/01 11:02:40;;;;;;;33.00;17.50;;;;;;;4.18;83.08;102630.14;1698601;81;28408;-78
2021/03/01 11:05:08;;;;;;;36.42;20.95;;;;;;;4.14;83.02;102623.33;1692747;81;25886;-79
2021/03/01 11:07:35;;;;;;;35.43;18.20;;;;;;;4.14;82.99;102622.47;1733496;81;25953;-78
2021/03/01 11:10:04;;;;;;;38.73;21.35;;;;;;;4.14;83.01;102618.02;1686242;81;26513;-78
2021/03/01 11:12:32;;;;;;;39.83;21.55;;;;;;;4.19;83.21;102617.23;1692990;81;26222;-79
2021/03/01 11:14:59;;;;;;;43.40;22.00;;;;;;;4.25;83.13;102617.34;1714835;81;27325;-78
2021/03/01 11:17:26;;;;;;;32.23;18.65;;;;;;;4.24;82.89;102623.11;1757596;81;25901;-79
2021/03/01 11:19:53;;;;;;;28.73;15.83;;;;;;;4.22;82.95;102614.88;1664115;82;25756;-79
2021/03/01 11:22:21;;;;;;;43.48;23.52;;;;;;;4.23;83.08;102611.28;1729831;81;26024;-79
2021/03/01 11:24:49;;;;;;;44.18;22.75;;;;;;;4.23;83.14;102609.96;1725577;81;26610;-79
2021/03/01 11:27:16;;;;;;;41.80;22.82;;;;;;;4.26;83.02;102610.61;1744646;81;27536;-78
2021/03/01 11:29:43;;;;;;;42.70;23.45;;;;;;;4.26;83.00;102609.28;1691379;81;26329;-79
2021/03/01 11:32:10;;;;;;;36.35;21.07;;;;;;;4.27;82.94;102605.69;1708499;81;25811;-80
2021/03/01 11:34:38;;;;;;;28.65;15.60;;;;;;;4.28;83.03;102615.80;1724119;81;25920;-79
2021/03/01 11:37:05;;;;;;;30.35;17.30;;;;;;;4.27;82.90;102612.33;1733910;81;25827;-78
2021/03/01 11:39:32;;;;;;;38.55;20.55;;;;;;;4.25;82.84;102606.73;1698748;81;27532;-78